createdAt,value
2018-03-28T04:01:41.945Z,94.40
2018-03-28T04:04:09.573Z,94.20
2018-03-28T04:06:38.034Z,94.40
2018-03-28T04:09:05.552Z,94.60
2018-03-28T04:11:33.965Z,94.40
2018-03-28T04:14:01.831Z,94.40
2018-03-28T04:16:29.586Z,94.40
2018-03-28T04:18:57.226Z,94.50
2018-03-28T04:21:24.860Z,94.50
2018-03-28T04:23:52.533Z,94.60
2018-03-28T04:26:20.197Z,94.70
2018-03-28T04:28:47.788Z,94.50
2018-03-28T04:31:15.413Z,94.60
2018-03-28T04:33:43.009Z,94.30
2018-03-28T04:36:11.328Z,94.60
2018-03-28T04:38:38.980Z,95.00
2018-03-28T04:41:06.512Z,94.70
2018-03-28T04:43:34.895Z,94.70
2018-03-28T04:46:02.462Z,94.70
2018-03-28T04:48:30.033Z,95.00
2018-03-28T04:50:57.608Z,95.10
2018-03-28T04:53:25.222Z,95.00
2018-03-28T04:55:52.825Z,94.60
2018-03-28T04:58:20.465Z,94.50
2018-03-28T05:00:48.218Z,94.60
2018-03-28T05:03:16.521Z,94.80
2018-03-28T05:05:44.123Z,95.00
2018-03-28T05:08:11.707Z,94.90
2018-03-28T05:10:39.318Z,94.90
2018-03-28T05:13:06.901Z,94.80
2018-03-28T05:15:34.528Z,94.10
2018-03-28T05:18:02.104Z,94.00
2018-03-28T05:20:29.712Z,94.10
2018-03-28T05:22:57.607Z,94.20
2018-03-28T05:25:25.217Z,94.20
2018-03-28T05:27:52.817Z,94.50
2018-03-28T05:30:20.403Z,94.10
2018-03-28T05:32:48.006Z,94.50
2018-03-28T05:35:15.631Z,94.50
2018-03-28T05:37:43.281Z,94.60
2018-03-28T05:40:10.865Z,94.20
2018-03-28T05:42:38.501Z,94.40
2018-03-28T05:45:06.251Z,94.40
2018-03-28T05:47:33.869Z,94.60
2018-03-28T05:50:01.404Z,95.00
2018-03-28T05:52:29.045Z,94.50
2018-03-28T05:54:56.630Z,94.50
2018-03-28T05:57:24.182Z,94.10
2018-03-28T05:59:51.769Z,93.90
2018-03-28T06:02:19.369Z,94.00
2018-03-28T06:04:46.955Z,94.40
2018-03-28T06:07:14.635Z,94.80
2018-03-28T06:09:42.306Z,94.80
2018-03-28T06:12:09.912Z,94.40
2018-03-28T06:14:37.536Z,93.70
2018-03-28T06:17:05.174Z,94.40
2018-03-28T06:19:32.798Z,94.30
2018-03-28T06:22:00.400Z,94.80
2018-03-28T06:24:28.040Z,95.00
2018-03-28T06:26:55.689Z,94.50
2018-03-28T06:29:23.402Z,94.50
2018-03-28T06:31:51.075Z,94.30
2018-03-28T06:34:18.730Z,94.20
2018-03-28T06:36:46.376Z,94.10
2018-03-28T06:39:14.042Z,94.30
2018-03-28T06:41:43.292Z,94.30
2018-03-28T06:44:10.888Z,94.20
2018-03-28T06:46:38.535Z,94.80
2018-03-28T06:49:06.142Z,94.60
2018-03-28T06:51:33.753Z,93.90
2018-03-28T06:54:01.399Z,93.70
2018-03-28T06:56:28.942Z,93.50
2018-03-28T06:58:57.326Z,93.30
2018-03-28T07:01:25.722Z,92.50
2018-03-28T07:03:53.558Z,92.50
2018-03-28T07:06:21.191Z,92.80
2018-03-28T07:08:48.815Z,92.60
2018-03-28T07:11:16.407Z,92.70
2018-03-28T07:13:44.061Z,92.80
2018-03-28T07:16:11.729Z,92.50
2018-03-28T07:18:39.351Z,92.30
2018-03-28T07:21:07.047Z,92.00
2018-03-28T07:23:34.775Z,92.40
2018-03-28T07:26:03.163Z,92.40
2018-03-28T07:28:30.871Z,92.40
2018-03-28T07:30:58.513Z,92.10
2018-03-28T07:33:26.262Z,91.30
2018-03-28T07:35:53.956Z,91.70
2018-03-28T07:38:21.679Z,91.50
2018-03-28T07:40:49.319Z,92.40
2018-03-28T07:43:17.740Z,92.30
2018-03-28T07:45:45.312Z,92.20
2018-03-28T07:48:12.986Z,92.60
2018-03-28T07:50:40.670Z,91.90
2018-03-28T07:53:08.354Z,91.90
2018-03-28T07:55:36.145Z,91.80
2018-03-28T07:58:03.766Z,91.40
2018-03-28T08:00:31.406Z,90.90
2018-03-28T08:02:59.137Z,90.60
2018-03-28T08:05:26.792Z,88.80
2018-03-28T08:07:54.430Z,88.90
2018-03-28T08:10:23.385Z,86.70
2018-03-28T08:12:51.034Z,86.60
2018-03-28T08:15:18.773Z,87.90
2018-03-28T08:17:46.359Z,88.20
2018-03-28T08:20:14.243Z,86.70
2018-03-28T08:22:41.832Z,84.70
2018-03-28T08:25:09.463Z,80.10
2018-03-28T08:27:37.199Z,79.10
2018-03-28T08:30:05.110Z,78.20
2018-03-28T08:32:33.255Z,77.90
2018-03-28T08:35:00.889Z,77.00
2018-03-28T08:37:28.482Z,76.90
2018-03-28T08:39:56.117Z,75.60
2018-03-28T08:42:23.918Z,73.50
2018-03-28T08:44:51.677Z,68.00
2018-03-28T08:47:20.279Z,68.00
2018-03-28T08:49:47.955Z,65.90
2018-03-28T08:52:16.615Z,62.50
2018-03-28T08:54:44.363Z,61.40
2018-03-28T08:57:12.347Z,59.40
2018-03-28T08:59:39.959Z,55.70
2018-03-28T09:02:07.595Z,54.20
2018-03-28T09:04:35.327Z,56.60
2018-03-28T09:07:02.974Z,53.90
2018-03-28T09:09:30.558Z,53.50
2018-03-28T09:11:58.251Z,54.40
2018-03-28T09:14:26.689Z,54.20
2018-03-28T09:16:54.337Z,54.20
2018-03-28T09:19:21.989Z,56.40
2018-03-28T09:21:49.856Z,58.20
2018-03-28T09:24:17.642Z,58.60
2018-03-28T09:26:45.354Z,60.70
2018-03-28T09:29:13.789Z,65.10
2018-03-28T09:31:41.460Z,65.10
2018-03-28T09:34:09.158Z,64.80
2018-03-28T09:36:36.749Z,64.20
2018-03-28T09:39:04.342Z,64.00
2018-03-28T09:41:32.004Z,63.00
2018-03-28T09:43:59.713Z,59.80
2018-03-28T09:46:27.381Z,55.90
2018-03-28T09:48:55.731Z,53.00
2018-03-28T09:51:23.374Z,53.10
2018-03-28T09:53:51.100Z,50.80
2018-03-28T09:56:18.749Z,48.60
2018-03-28T09:58:46.377Z,47.20
2018-03-28T10:01:30.544Z,47.00
2018-03-28T10:04:04.637Z,50.40
2018-03-28T10:06:33.218Z,50.30
2018-03-28T10:09:00.864Z,50.90
2018-03-28T10:11:28.462Z,52.10
2018-03-28T10:13:56.919Z,52.10
2018-03-28T10:16:24.632Z,52.10
2018-03-28T10:18:52.251Z,55.10
2018-03-28T10:21:19.857Z,56.10
2018-03-28T10:23:47.491Z,57.80
2018-03-28T10:26:15.080Z,57.90
2018-03-28T10:28:42.866Z,58.20
2018-03-28T10:31:10.578Z,56.90
2018-03-28T10:33:38.246Z,58.40
2018-03-28T10:36:05.968Z,58.60
2018-03-28T10:38:33.631Z,59.50
2018-03-28T10:41:01.222Z,59.00
2018-03-28T10:43:29.268Z,58.50
2018-03-28T10:46:54.389Z,58.80
2018-03-28T10:49:21.925Z,59.30
2018-03-28T10:51:49.680Z,60.00
2018-03-28T10:54:17.232Z,59.20
2018-03-28T10:56:44.780Z,59.60
2018-03-28T10:59:12.308Z,58.50
2018-03-28T11:04:32.565Z,55.60
2018-03-28T11:07:00.272Z,56.10
2018-03-28T11:09:27.856Z,56.60
2018-03-28T11:11:56.223Z,55.20
2018-03-28T11:14:27.432Z,54.70
2018-03-28T11:16:55.016Z,52.20
2018-03-28T11:19:22.595Z,51.40
2018-03-28T11:21:50.205Z,49.60
2018-03-28T11:24:18.152Z,50.40
2018-03-28T11:26:45.751Z,49.20
2018-03-28T11:29:14.295Z,49.30
2018-03-28T11:31:42.600Z,48.60
2018-03-28T11:34:10.169Z,48.60
2018-03-28T11:36:37.780Z,48.90
2018-03-28T11:39:06.244Z,48.60
2018-03-28T11:41:33.836Z,48.60
2018-03-28T11:44:01.425Z,48.00
2018-03-28T11:46:29.027Z,47.00
2018-03-28T11:48:56.520Z,46.80
2018-03-28T11:51:25.508Z,46.90
2018-03-28T11:53:53.035Z,47.00
2018-03-28T11:56:20.586Z,46.20
2018-03-28T11:58:48.168Z,44.80
2018-03-28T12:01:15.848Z,42.90
2018-03-28T12:03:43.412Z,41.20
2018-03-28T12:06:11.783Z,38.60
2018-03-28T12:08:39.350Z,38.60
2018-03-28T12:11:07.022Z,39.10
2018-03-28T12:13:36.120Z,40.20
2018-03-28T12:16:06.600Z,41.10
2018-03-28T12:18:34.189Z,41.50
2018-03-28T12:23:49.501Z,45.30
2018-03-28T12:26:17.780Z,45.20
2018-03-28T12:28:51.413Z,46.60
2018-03-28T12:31:20.181Z,48.00
2018-03-28T12:33:48.567Z,48.40
2018-03-28T12:36:16.974Z,49.40
2018-03-28T12:38:44.534Z,50.90
2018-03-28T12:41:12.050Z,51.10
2018-03-28T12:50:41.103Z,50.00
2018-03-28T12:53:08.627Z,61.30
2018-03-28T12:55:37.034Z,49.60
2018-03-28T12:58:04.533Z,49.50
2018-03-28T13:00:32.088Z,51.30
2018-03-28T13:02:59.603Z,52.10
2018-03-28T13:05:27.236Z,53.00
2018-03-28T13:07:54.832Z,53.90
2018-03-28T13:10:22.360Z,54.70
2018-03-28T13:12:50.732Z,56.40
2018-03-28T13:15:19.033Z,56.60
2018-03-28T13:17:46.552Z,56.60
2018-03-28T13:20:14.176Z,56.70
2018-03-28T13:22:51.556Z,57.30
2018-03-28T13:25:19.231Z,58.60
2018-03-28T13:27:46.826Z,58.10
2018-03-28T13:30:14.430Z,58.10
2018-03-28T13:32:42.048Z,58.30
2018-03-28T13:35:10.444Z,59.90
2018-03-28T13:37:38.987Z,59.80
2018-03-28T13:40:06.589Z,59.10
2018-03-28T13:42:34.178Z,59.70
2018-03-28T13:45:01.961Z,59.40
2018-03-28T13:47:29.588Z,59.40
2018-03-28T13:49:57.387Z,60.30
2018-03-28T13:52:25.541Z,60.20
2018-03-28T13:54:53.209Z,60.00
2018-03-28T13:57:20.995Z,59.90
2018-03-28T13:59:48.602Z,60.00
2018-03-28T14:02:25.891Z,60.60
2018-03-28T14:04:53.492Z,59.90
2018-03-28T14:07:21.101Z,61.00
2018-03-28T14:09:48.714Z,60.80
2018-03-28T14:12:16.554Z,61.10
2018-03-28T14:14:44.172Z,59.40
2018-03-28T14:17:12.569Z,59.80
2018-03-28T14:19:40.147Z,59.80
2018-03-28T14:25:05.597Z,61.30
2018-03-28T14:27:33.196Z,60.40
2018-03-28T14:30:00.837Z,60.30
2018-03-28T14:32:28.593Z,60.80
2018-03-28T14:34:56.197Z,60.90
2018-03-28T14:37:23.811Z,61.00
2018-03-28T14:39:51.604Z,61.40
2018-03-28T14:48:25.181Z,60.90
2018-03-28T14:50:57.871Z,60.90
2018-03-28T14:53:25.493Z,60.40
2018-03-28T14:55:53.051Z,60.50
2018-03-28T14:58:20.612Z,61.10
2018-03-28T15:00:58.659Z,61.30
2018-03-28T15:03:26.219Z,61.30
2018-03-28T15:05:53.780Z,60.70
2018-03-28T15:08:21.348Z,61.80
2018-03-28T15:10:48.894Z,61.30
2018-03-28T15:13:16.473Z,62.30
2018-03-28T15:15:43.961Z,61.60
2018-03-28T15:18:12.248Z,63.00
2018-03-28T15:20:39.787Z,63.00
2018-03-28T15:23:07.312Z,63.80
2018-03-28T15:25:34.847Z,63.70
2018-03-28T15:28:02.436Z,62.60
2018-03-28T15:30:29.972Z,62.70
2018-03-28T15:32:57.510Z,62.50
2018-03-28T15:35:25.024Z,63.20
2018-03-28T15:37:52.642Z,63.30
2018-03-28T15:40:20.466Z,63.00
2018-03-28T15:42:48.896Z,63.50
2018-03-28T15:45:16.411Z,63.40
2018-03-28T15:47:44.699Z,63.40
2018-03-28T15:50:12.303Z,63.30
2018-03-28T15:52:39.921Z,64.00
2018-03-28T15:55:07.394Z,64.30
2018-03-28T15:57:34.964Z,64.80
2018-03-28T16:00:02.553Z,65.00
2018-03-28T16:02:30.058Z,64.80
2018-03-28T16:04:57.636Z,65.40
2018-03-28T16:07:25.168Z,65.90
2018-03-28T16:09:52.717Z,66.00
2018-03-28T16:12:20.245Z,65.20
2018-03-28T16:14:47.750Z,65.80
2018-03-28T16:17:15.281Z,65.20
2018-03-28T16:19:43.580Z,67.50
2018-03-28T16:22:11.260Z,67.50
2018-03-28T16:24:38.823Z,67.70
2018-03-28T16:27:06.349Z,66.80
2018-03-28T16:29:33.899Z,70.90
2018-03-28T16:32:20.968Z,71.60
2018-03-28T16:34:48.501Z,70.90
2018-03-28T16:37:16.019Z,70.30
2018-03-28T16:39:43.568Z,73.10
2018-03-28T16:42:11.108Z,74.10
2018-03-28T16:44:38.653Z,73.70
2018-03-28T16:47:06.158Z,73.70
2018-03-28T16:49:34.473Z,74.10
2018-03-28T16:52:02.005Z,74.00
2018-03-28T16:54:29.500Z,74.20
2018-03-28T16:56:57.075Z,73.90
2018-03-28T16:59:24.570Z,73.90
2018-03-28T17:01:52.086Z,73.40
2018-03-28T17:04:19.649Z,73.70
2018-03-28T17:06:47.180Z,73.70
2018-03-28T17:09:14.748Z,73.30
2018-03-28T17:11:42.280Z,73.90
2018-03-28T17:14:09.780Z,73.90
2018-03-28T17:16:37.316Z,75.60
2018-03-28T17:19:04.920Z,77.20
2018-03-28T17:21:32.428Z,77.50
2018-03-28T17:23:59.940Z,78.50
2018-03-28T17:26:27.477Z,74.30
2018-03-28T17:28:55.015Z,75.30
2018-03-28T17:31:22.591Z,75.70
2018-03-28T17:33:50.120Z,74.90
2018-03-28T17:36:17.663Z,74.40
2018-03-28T17:38:45.204Z,74.90
2018-03-28T17:41:18.696Z,75.50
2018-03-28T17:43:46.988Z,76.90
2018-03-28T17:46:14.516Z,76.90
2018-03-28T17:48:42.098Z,76.70
2018-03-28T17:51:15.551Z,75.60
2018-03-28T17:53:43.086Z,75.60
2018-03-28T17:56:10.622Z,75.00
2018-03-28T17:58:38.125Z,73.50
2018-03-28T18:01:05.733Z,73.50
2018-03-28T18:03:33.252Z,72.90
2018-03-28T18:06:00.771Z,72.40
2018-03-28T18:08:28.349Z,72.50
2018-03-28T18:10:55.891Z,72.70
2018-03-28T18:13:23.414Z,72.80
2018-03-28T18:15:51.748Z,71.10
2018-03-28T18:18:19.285Z,71.00
2018-03-28T18:20:46.834Z,69.10
2018-03-28T18:23:14.413Z,68.00
2018-03-28T18:25:41.960Z,66.20
2018-03-28T18:28:09.482Z,64.60
2018-03-28T18:30:37.837Z,62.30
2018-03-28T18:33:05.381Z,62.30
2018-03-28T18:35:32.886Z,61.10
2018-03-28T18:38:01.321Z,59.10
2018-03-28T18:40:28.864Z,59.10
2018-03-28T18:42:56.432Z,59.40
2018-03-28T18:48:05.833Z,60.30
2018-03-28T18:50:33.409Z,61.80
2018-03-28T18:53:00.940Z,61.80
2018-03-28T18:55:28.533Z,59.10
2018-03-28T18:57:56.837Z,59.80
2018-03-28T19:00:24.353Z,59.70
2018-03-28T19:02:51.913Z,56.50
2018-03-28T19:05:19.491Z,57.30
2018-03-28T19:07:47.044Z,59.50
2018-03-28T19:10:14.578Z,61.20
2018-03-28T19:12:51.767Z,61.60
2018-03-28T19:15:19.284Z,61.90
2018-03-28T19:17:46.863Z,62.50
2018-03-28T19:20:14.436Z,65.10
2018-03-28T19:22:42.708Z,66.10
2018-03-28T19:25:10.997Z,67.00
2018-03-28T19:27:38.581Z,67.00
2018-03-28T19:30:06.102Z,68.30
2018-03-28T19:32:34.428Z,72.70
2018-03-28T19:35:01.998Z,72.70
2018-03-28T19:37:29.516Z,74.20
2018-03-28T19:39:57.039Z,75.60
2018-03-28T19:42:24.627Z,76.50
2018-03-28T19:44:52.157Z,76.40
2018-03-28T19:47:19.665Z,76.50
2018-03-28T19:49:47.187Z,77.30
2018-03-28T19:52:15.464Z,77.70
2018-03-28T19:54:43.045Z,77.70
2018-03-28T19:57:10.613Z,79.00
2018-03-28T19:59:38.140Z,78.80
2018-03-28T20:02:06.408Z,79.30
2018-03-28T20:04:34.719Z,79.60
2018-03-28T20:07:02.286Z,79.60
2018-03-28T20:09:29.879Z,79.50
2018-03-28T20:11:57.408Z,82.30
2018-03-28T20:14:24.990Z,82.70
2018-03-28T20:16:52.521Z,82.80
2018-03-28T20:19:20.061Z,83.60
2018-03-28T20:21:47.648Z,83.70
2018-03-28T20:24:15.177Z,84.80
2018-03-28T20:26:42.720Z,84.80
2018-03-28T20:29:10.256Z,86.20
2018-03-28T20:31:37.784Z,86.70
2018-03-28T20:34:05.331Z,86.20
2018-03-28T20:36:32.893Z,86.70
2018-03-28T20:39:00.408Z,87.20
2018-03-28T20:41:28.719Z,88.60
2018-03-28T20:43:56.282Z,88.60
2018-03-28T20:46:23.783Z,88.80
2018-03-28T20:48:51.318Z,88.80
2018-03-28T20:51:18.886Z,89.50
2018-03-28T20:53:46.389Z,89.90
2018-03-28T20:56:13.945Z,89.90
2018-03-28T20:58:41.539Z,89.80
2018-03-28T21:01:09.059Z,90.00
2018-03-28T21:03:37.327Z,90.60
2018-03-28T21:06:04.891Z,90.60
2018-03-28T21:08:33.160Z,90.70
2018-03-28T21:11:00.671Z,90.70
2018-03-28T21:13:28.228Z,90.80
2018-03-28T21:15:55.836Z,91.20
2018-03-28T21:18:24.136Z,91.70
2018-03-28T21:20:51.652Z,91.70
2018-03-28T21:23:19.176Z,91.40
2018-03-28T21:25:46.683Z,91.40
2018-03-28T21:28:14.253Z,91.30
2018-03-28T21:30:42.558Z,91.70
2018-03-28T21:33:10.082Z,91.60
2018-03-28T21:35:37.630Z,91.80
2018-03-28T21:38:05.157Z,91.90
2018-03-28T21:40:32.659Z,91.80
2018-03-28T21:43:00.328Z,92.50
2018-03-28T21:45:27.835Z,92.30
2018-03-28T21:47:55.336Z,92.40
2018-03-28T21:50:22.909Z,92.30
2018-03-28T21:52:50.420Z,92.30
2018-03-28T21:55:17.957Z,92.20
2018-03-28T21:57:45.500Z,91.20
2018-03-28T22:00:13.057Z,91.50
2018-03-28T22:02:40.583Z,91.60
2018-03-28T22:05:08.140Z,91.80
2018-03-28T22:07:35.668Z,91.90
2018-03-28T22:10:03.172Z,92.20
2018-03-28T22:12:30.692Z,92.50
2018-03-28T22:14:58.212Z,92.70
2018-03-28T22:17:25.736Z,91.80
2018-03-28T22:19:53.337Z,92.20
2018-03-28T22:22:20.832Z,92.50
2018-03-28T22:24:48.360Z,92.70
2018-03-28T22:27:15.918Z,92.80
2018-03-28T22:29:43.472Z,92.80
2018-03-28T22:32:10.975Z,92.80
2018-03-28T22:34:38.535Z,92.70
2018-03-28T22:37:06.100Z,92.50
2018-03-28T22:39:34.508Z,93.20
2018-03-28T22:42:02.056Z,93.20
2018-03-28T22:44:29.582Z,93.20
2018-03-28T22:46:57.116Z,93.30
2018-03-28T22:49:24.649Z,93.40
2018-03-28T22:51:52.152Z,93.50
2018-03-28T22:54:19.669Z,93.50
2018-03-28T22:56:47.231Z,93.60
2018-03-28T22:59:14.753Z,93.30
2018-03-28T23:01:42.293Z,93.20
2018-03-28T23:04:09.848Z,93.40
2018-03-28T23:06:37.372Z,93.40
2018-03-28T23:09:04.875Z,93.30
2018-03-28T23:11:32.412Z,93.30
2018-03-28T23:13:59.945Z,93.30
2018-03-28T23:16:27.464Z,92.20
2018-03-28T23:18:55.737Z,93.50
2018-03-28T23:21:24.035Z,91.90
2018-03-28T23:23:51.584Z,91.90
2018-03-28T23:26:19.140Z,92.20
2018-03-28T23:28:46.663Z,92.90
2018-03-28T23:31:14.195Z,93.10
2018-03-28T23:33:41.714Z,93.20
2018-03-28T23:36:09.253Z,93.40
2018-03-28T23:38:37.540Z,93.40
2018-03-28T23:41:05.044Z,93.00
2018-03-28T23:43:32.612Z,93.40
2018-03-28T23:46:00.128Z,93.00
2018-03-28T23:48:27.648Z,92.90
2018-03-28T23:50:55.380Z,92.20
2018-03-28T23:53:22.898Z,92.20
2018-03-28T23:55:50.383Z,92.30
2018-03-28T23:58:17.964Z,92.90
